createdAt,value
2022-09-06T00:00:58.078Z,70.3918457
2022-09-06T00:01:58.495Z,70.3918457
2022-09-06T00:02:58.919Z,70.3918457
2022-09-06T00:04:00.511Z,70.3918457
2022-09-06T00:05:01.759Z,70.48950195
2022-09-06T00:06:02.158Z,70.3918457
2022-09-06T00:07:02.588Z,70.19042969
2022-09-06T00:08:02.930Z,70.09277344
2022-09-06T00:09:03.348Z,70.19042969
2022-09-06T00:10:04.557Z,70.3918457
2022-09-06T00:11:05.093Z,70.52612305
2022-09-06T00:12:05.404Z,70.92285156
2022-09-06T00:13:05.750Z,71.02661133
2022-09-06T00:14:06.156Z,70.92285156
2022-09-06T00:15:06.584Z,71.02661133
2022-09-06T00:16:07.121Z,71.02661133
2022-09-06T00:17:07.443Z,71.02661133
2022-09-06T00:18:07.849Z,70.89233398
2022-09-06T00:19:08.240Z,70.89233398
2022-09-06T00:20:08.673Z,70.79467773
2022-09-06T00:21:09.051Z,70.79467773
2022-09-06T00:22:09.480Z,70.79467773
2022-09-06T00:23:09.826Z,70.79467773
2022-09-06T00:24:11.042Z,70.89233398
2022-09-06T00:25:11.668Z,71.19140625
2022-09-06T00:26:13.147Z,71.2890625
2022-09-06T00:27:13.507Z,71.2890625
2022-09-06T00:28:13.894Z,71.09375
2022-09-06T00:29:14.292Z,70.79467773
2022-09-06T00:30:14.727Z,70.98999023
2022-09-06T00:31:45.599Z,71.09375
2022-09-06T00:32:46.144Z,71.19140625
2022-09-06T00:33:47.046Z,71.09375
2022-09-06T00:34:47.480Z,71.09375
2022-09-06T00:35:47.881Z,71.19140625
2022-09-06T00:36:48.299Z,70.89233398
2022-09-06T00:37:48.703Z,70.89233398
2022-09-06T00:38:49.081Z,70.79467773
2022-09-06T00:39:49.542Z,70.89233398
2022-09-06T00:40:49.906Z,70.89233398
2022-09-06T00:41:50.280Z,71.09375
2022-09-06T00:42:50.689Z,70.98999023
2022-09-06T00:43:51.762Z,70.98999023
2022-09-06T00:44:53.057Z,70.79467773
2022-09-06T00:45:53.535Z,70.79467773
2022-09-06T00:46:53.900Z,70.79467773
2022-09-06T00:47:54.308Z,70.89233398
2022-09-06T00:48:54.695Z,70.89233398
2022-09-06T00:49:55.084Z,70.89233398
2022-09-06T00:50:56.272Z,70.98999023
2022-09-06T00:51:56.702Z,71.2890625
2022-09-06T00:52:57.225Z,71.32568359
2022-09-06T00:53:57.492Z,71.42333984
2022-09-06T00:54:58.556Z,71.62475586
2022-09-06T00:55:58.948Z,71.62475586
2022-09-06T00:56:59.385Z,71.42333984
2022-09-06T00:57:59.859Z,71.62475586
2022-09-06T00:59:01.048Z,71.62475586
2022-09-06T01:00:01.453Z,71.62475586
2022-09-06T01:01:01.850Z,71.52709961
2022-09-06T01:02:02.461Z,71.62475586
2022-09-06T01:03:02.756Z,71.92382813
2022-09-06T01:04:03.123Z,72.02758789
2022-09-06T01:05:03.505Z,72.22900391
2022-09-06T01:06:03.898Z,72.22900391
2022-09-06T01:07:04.311Z,72.22900391
2022-09-06T01:08:04.736Z,72.12524414
2022-09-06T01:09:05.097Z,72.02758789
2022-09-06T01:10:05.555Z,71.82617188
2022-09-06T01:11:05.935Z,71.62475586
2022-09-06T01:12:06.318Z,71.32568359
2022-09-06T01:13:06.750Z,71.42333984
2022-09-06T01:14:07.097Z,71.22802734
2022-09-06T01:15:08.065Z,71.12426758
2022-09-06T01:16:08.512Z,71.22802734
2022-09-06T01:17:08.915Z,71.22802734
2022-09-06T01:18:09.348Z,71.32568359
2022-09-06T01:19:10.569Z,71.42333984
2022-09-06T01:20:10.953Z,71.42333984
2022-09-06T01:21:11.546Z,71.42333984
2022-09-06T01:22:11.994Z,71.42333984
2022-09-06T01:23:12.396Z,71.52709961
2022-09-06T01:24:12.786Z,71.42333984
2022-09-06T01:25:14.068Z,71.12426758
2022-09-06T01:26:44.965Z,71.12426758
2022-09-06T01:27:45.367Z,71.12426758
2022-09-06T01:28:45.789Z,71.25854492
2022-09-06T01:29:46.147Z,71.55761719
2022-09-06T01:30:46.596Z,71.45996094
2022-09-06T01:31:46.962Z,71.7590332
2022-09-06T01:32:47.357Z,72.05810547
2022-09-06T01:33:47.813Z,71.86279297
2022-09-06T01:34:48.184Z,72.16186523
2022-09-06T01:35:49.269Z,72.05810547
2022-09-06T01:36:59.986Z,72.05810547
2022-09-06T01:37:50.082Z,72.25952148
2022-09-06T01:38:50.630Z,72.16186523
2022-09-06T01:39:50.946Z,72.05810547
2022-09-06T01:40:51.329Z,72.05810547
2022-09-06T01:41:51.733Z,72.16186523
2022-09-06T01:42:52.141Z,72.16186523
2022-09-06T01:43:53.278Z,72.05810547
2022-09-06T01:44:53.692Z,71.96044922
2022-09-06T01:45:54.832Z,71.96044922
2022-09-06T01:46:55.187Z,71.86279297
2022-09-06T01:47:55.601Z,71.66137695
2022-09-06T01:48:56.583Z,71.7590332
2022-09-06T01:49:56.972Z,71.86279297
2022-09-06T01:50:57.405Z,71.96044922
2022-09-06T01:51:57.826Z,72.16186523
2022-09-06T01:52:58.226Z,72.25952148
2022-09-06T01:53:58.662Z,72.36328125
2022-09-06T01:54:59.830Z,72.36328125
2022-09-06T01:56:00.769Z,72.25952148
2022-09-06T01:57:01.387Z,72.05810547
2022-09-06T01:58:01.645Z,72.25952148
2022-09-06T01:59:02.089Z,72.16186523
2022-09-06T02:00:02.480Z,72.05810547
2022-09-06T02:01:02.932Z,72.16186523
2022-09-06T02:02:03.352Z,71.96044922
2022-09-06T02:03:03.860Z,71.86279297
2022-09-06T02:04:04.321Z,71.86279297
2022-09-06T02:05:04.705Z,72.36328125
2022-09-06T02:06:05.782Z,72.36328125
2022-09-06T02:07:06.185Z,72.4609375
2022-09-06T02:08:06.734Z,72.55859375
2022-09-06T02:09:08.087Z,72.55859375
2022-09-06T02:10:08.499Z,72.55859375
2022-09-06T02:11:08.914Z,72.36328125
2022-09-06T02:12:09.433Z,72.36328125
2022-09-06T02:13:09.834Z,72.25952148
2022-09-06T02:14:10.266Z,72.25952148
2022-09-06T02:15:10.700Z,72.36328125
2022-09-06T02:16:11.107Z,72.49755859
2022-09-06T02:17:11.617Z,72.59521484
2022-09-06T02:18:12.064Z,72.59521484
2022-09-06T02:19:12.496Z,72.59521484
2022-09-06T02:20:12.919Z,72.59521484
2022-09-06T02:21:13.317Z,72.59521484
2022-09-06T02:22:44.215Z,72.59521484
2022-09-06T02:23:44.675Z,72.36328125
2022-09-06T02:24:45.102Z,72.16186523
2022-09-06T02:25:45.518Z,72.16186523
2022-09-06T02:26:45.941Z,72.25952148
2022-09-06T02:27:46.356Z,72.36328125
2022-09-06T02:28:46.833Z,72.29614258
2022-09-06T02:29:47.284Z,72.29614258
2022-09-06T02:30:47.739Z,72.29614258
2022-09-06T02:31:48.078Z,72.49755859
2022-09-06T02:32:48.459Z,72.39379883
2022-09-06T02:33:48.931Z,72.49755859
2022-09-06T02:34:49.431Z,72.59521484
2022-09-06T02:35:50.597Z,72.89428711
2022-09-06T02:36:50.992Z,72.99804688
2022-09-06T02:37:51.387Z,72.99804688
2022-09-06T02:38:52.587Z,72.69287109
2022-09-06T02:39:53.088Z,72.69287109
2022-09-06T02:40:53.479Z,72.69287109
2022-09-06T02:41:53.863Z,72.59521484
2022-09-06T02:42:54.280Z,72.59521484
2022-09-06T02:43:54.743Z,72.39379883
2022-09-06T02:44:55.246Z,72.19238281
2022-09-06T02:45:56.332Z,72.19238281
2022-09-06T02:46:57.583Z,72.39379883
2022-09-06T02:47:57.994Z,72.39379883
2022-09-06T02:48:58.482Z,72.52807617
2022-09-06T02:49:58.959Z,72.63183594
2022-09-06T02:51:00.118Z,72.52807617
2022-09-06T02:52:00.519Z,72.43041992
2022-09-06T02:53:00.905Z,72.43041992
2022-09-06T02:54:01.379Z,72.9309082
2022-09-06T02:55:01.849Z,73.22998047
2022-09-06T02:56:02.800Z,73.22998047
2022-09-06T02:57:03.217Z,73.13232422
2022-09-06T02:58:03.632Z,72.83325195
2022-09-06T02:59:04.603Z,72.83325195
2022-09-06T03:00:05.070Z,72.63183594
2022-09-06T03:01:05.564Z,72.63183594
2022-09-06T03:02:05.921Z,72.52807617
2022-09-06T03:03:06.301Z,72.63183594
2022-09-06T03:04:06.697Z,72.43041992
2022-09-06T03:05:07.883Z,72.43041992
2022-09-06T03:06:08.807Z,72.43041992
2022-09-06T03:07:09.215Z,72.9309082
2022-09-06T03:08:09.600Z,72.72949219
2022-09-06T03:09:10.588Z,72.83325195
2022-09-06T03:10:11.134Z,72.52807617
2022-09-06T03:11:11.802Z,72.43041992
2022-09-06T03:12:12.221Z,72.43041992
2022-09-06T03:13:12.650Z,72.63183594
2022-09-06T03:14:43.611Z,72.72949219
2022-09-06T03:15:44.620Z,72.32666016
2022-09-06T03:16:45.063Z,72.32666016
2022-09-06T03:17:45.427Z,72.43041992
2022-09-06T03:18:45.826Z,72.32666016
2022-09-06T03:19:46.225Z,72.13134766
2022-09-06T03:20:46.719Z,72.02758789
2022-09-06T03:21:47.143Z,71.92993164
2022-09-06T03:22:47.581Z,71.92993164
2022-09-06T03:23:48.025Z,71.63085938
2022-09-06T03:24:48.421Z,71.52709961
2022-09-06T03:25:49.913Z,71.52709961
2022-09-06T03:26:50.838Z,71.52709961
2022-09-06T03:27:52.101Z,71.72851563
2022-09-06T03:28:52.501Z,71.72851563
2022-09-06T03:29:52.911Z,71.63085938
2022-09-06T03:30:53.552Z,71.52709961
2022-09-06T03:31:53.935Z,71.42944336
2022-09-06T03:32:54.383Z,71.22802734
2022-09-06T03:33:54.772Z,71.22802734
2022-09-06T03:34:55.152Z,71.42944336
2022-09-06T03:35:56.611Z,71.82617188
2022-09-06T03:36:57.057Z,72.13134766
2022-09-06T03:37:57.487Z,72.22900391
2022-09-06T03:38:57.877Z,72.32666016
2022-09-06T03:39:58.312Z,72.43041992
2022-09-06T03:40:58.746Z,72.52807617
2022-09-06T03:41:59.159Z,72.83325195
2022-09-06T03:42:59.623Z,73.1628418
2022-09-06T03:44:00.606Z,73.1628418
2022-09-06T03:45:01.015Z,73.1628418
2022-09-06T03:46:02.199Z,73.06518555
2022-09-06T03:47:02.647Z,72.86376953
2022-09-06T03:48:03.051Z,72.86376953
2022-09-06T03:49:03.444Z,73.06518555
2022-09-06T03:50:03.835Z,73.26660156
2022-09-06T03:51:05.152Z,73.26660156
2022-09-06T03:52:05.540Z,73.46801758
2022-09-06T03:53:06.006Z,73.56567383
2022-09-06T03:54:06.395Z,73.86474609
2022-09-06T03:55:06.788Z,74.1027832
2022-09-06T03:56:08.168Z,74.30419922
2022-09-06T03:57:08.555Z,74.40185547
2022-09-06T03:58:09.031Z,74.20043945
2022-09-06T03:59:09.452Z,74.1027832
2022-09-06T04:00:09.873Z,73.90136719
2022-09-06T04:01:10.391Z,74.00512695
2022-09-06T04:02:10.773Z,73.76708984
2022-09-06T04:03:11.306Z,73.76708984
2022-09-06T04:04:11.861Z,73.26660156
2022-09-06T04:05:43.799Z,73.46801758
2022-09-06T04:06:44.873Z,73.56567383
2022-09-06T04:07:45.327Z,73.66943359
2022-09-06T04:08:45.752Z,73.56567383
2022-09-06T04:09:46.126Z,73.46801758
2022-09-06T04:10:46.513Z,73.36425781
2022-09-06T04:11:46.980Z,73.46801758
2022-09-06T04:12:47.371Z,73.46801758
2022-09-06T04:13:47.832Z,73.46801758
2022-09-06T04:14:48.823Z,73.66943359
2022-09-06T04:15:49.241Z,73.76708984
2022-09-06T04:16:50.494Z,73.66943359
2022-09-06T04:17:50.783Z,73.66943359
2022-09-06T04:18:51.217Z,73.76708984
2022-09-06T04:19:51.614Z,73.90136719
2022-09-06T04:20:52.043Z,74.1027832
2022-09-06T04:21:52.515Z,73.80371094
2022-09-06T04:22:53.828Z,73.86474609
2022-09-06T04:23:54.273Z,73.76708984
2022-09-06T04:24:54.683Z,73.76708984
2022-09-06T04:25:55.081Z,73.76708984
2022-09-06T04:26:56.379Z,73.66943359
2022-09-06T04:27:56.796Z,73.66943359
2022-09-06T04:28:57.210Z,73.36425781
2022-09-06T04:29:57.650Z,72.86376953
2022-09-06T04:31:01.979Z,72.76611328
2022-09-06T04:31:58.533Z,72.76611328
2022-09-06T04:32:58.933Z,72.76611328
2022-09-06T04:33:59.378Z,72.9309082
2022-09-06T04:34:59.861Z,72.63183594
2022-09-06T04:36:00.269Z,72.43041992
2022-09-06T04:37:01.413Z,72.13134766
2022-09-06T04:38:01.832Z,72.02758789
2022-09-06T04:39:02.281Z,71.92993164
2022-09-06T04:40:02.776Z,71.82617188
2022-09-06T04:41:03.612Z,71.92993164
2022-09-06T04:42:04.076Z,71.82617188
2022-09-06T04:43:04.486Z,71.92993164
2022-09-06T04:44:04.912Z,72.22900391
2022-09-06T04:45:06.348Z,71.92993164
2022-09-06T04:46:06.911Z,71.63085938
2022-09-06T04:47:09.624Z,71.63085938
2022-09-06T04:48:08.323Z,71.96044922
2022-09-06T04:49:08.763Z,72.16186523
2022-09-06T04:50:09.188Z,72.265625
2022-09-06T04:51:10.113Z,72.13134766
2022-09-06T04:52:10.548Z,72.02758789
2022-09-06T04:53:11.118Z,72.02758789
2022-09-06T04:54:11.547Z,71.82617188
2022-09-06T04:55:42.224Z,71.82617188
2022-09-06T04:56:43.614Z,71.72851563
2022-09-06T04:57:47.451Z,71.22802734
2022-09-06T04:58:44.507Z,71.22802734
2022-09-06T04:59:44.943Z,71.12426758
2022-09-06T05:00:45.424Z,71.12426758
2022-09-06T05:01:45.770Z,70.92895508
2022-09-06T05:02:46.309Z,70.92895508
2022-09-06T05:03:46.691Z,70.82519531
2022-09-06T05:04:47.132Z,70.92895508
2022-09-06T05:05:48.305Z,70.99609375
2022-09-06T05:06:49.617Z,71.09375
2022-09-06T05:07:50.095Z,70.69091797
2022-09-06T05:08:51.363Z,70.3918457
2022-09-06T05:09:51.825Z,70.3918457
2022-09-06T05:10:52.222Z,70.49560547
2022-09-06T05:11:52.615Z,70.49560547
2022-09-06T05:12:53.114Z,70.59326172
2022-09-06T05:13:53.494Z,70.49560547
2022-09-06T05:14:53.895Z,70.59326172
2022-09-06T05:15:54.283Z,70.69091797
2022-09-06T05:16:55.727Z,70.49560547
2022-09-06T05:17:56.053Z,70.49560547
2022-09-06T05:18:56.480Z,70.3918457
2022-09-06T05:19:56.909Z,70.49560547
2022-09-06T05:20:58.126Z,70.59326172
2022-09-06T05:21:58.576Z,70.79467773
2022-09-06T05:22:59.016Z,70.99609375
2022-09-06T05:23:59.453Z,70.49560547
2022-09-06T05:24:59.978Z,70.3918457
2022-09-06T05:26:00.391Z,70.3918457
2022-09-06T05:27:01.320Z,70.69091797
2022-09-06T05:28:01.794Z,70.89233398
2022-09-06T05:29:02.229Z,71.19140625
2022-09-06T05:30:02.677Z,70.79467773
2022-09-06T05:31:03.184Z,70.89233398
2022-09-06T05:32:03.653Z,71.09375
2022-09-06T05:33:03.982Z,71.09375
2022-09-06T05:34:04.392Z,71.16088867
2022-09-06T05:35:04.834Z,70.75805664
2022-09-06T05:36:05.828Z,70.45898438
2022-09-06T05:37:06.830Z,70.36132813
2022-09-06T05:38:07.246Z,70.55664063
2022-09-06T05:39:07.729Z,70.75805664
2022-09-06T05:40:08.233Z,70.66040039
2022-09-06T05:41:08.581Z,70.86181641
2022-09-06T05:42:08.989Z,71.05712891
2022-09-06T05:43:09.399Z,71.16088867
2022-09-06T05:44:09.837Z,71.05712891
2022-09-06T05:45:10.278Z,71.16088867
2022-09-06T05:46:10.843Z,71.55761719
2022-09-06T05:47:42.034Z,71.55761719
2022-09-06T05:48:42.503Z,71.36230469
2022-09-06T05:49:43.640Z,71.36230469
2022-09-06T05:50:44.109Z,71.36230469
2022-09-06T05:51:44.547Z,71.36230469
2022-09-06T05:52:44.955Z,71.55761719
2022-09-06T05:53:45.377Z,71.7956543
2022-09-06T05:54:45.849Z,71.7956543
2022-09-06T05:55:46.864Z,71.66137695
2022-09-06T05:56:48.160Z,71.66137695
2022-09-06T05:57:48.557Z,71.7956543
2022-09-06T05:58:48.992Z,71.7956543
2022-09-06T05:59:51.465Z,72.09472656
2022-09-06T06:00:50.922Z,72.29614258
2022-09-06T06:01:51.363Z,72.59521484
2022-09-06T06:02:51.716Z,72.69287109
2022-09-06T06:03:52.166Z,72.69287109
2022-09-06T06:04:52.607Z,72.29614258
2022-09-06T06:05:53.653Z,72.29614258
2022-09-06T06:06:54.091Z,72.49755859
2022-09-06T06:07:55.138Z,72.29614258
2022-09-06T06:08:55.570Z,72.29614258
2022-09-06T06:09:56.045Z,72.29614258
2022-09-06T06:10:56.492Z,72.39379883
2022-09-06T06:11:56.944Z,72.29614258
2022-09-06T06:12:57.362Z,72.09472656
2022-09-06T06:13:58.832Z,71.99707031
2022-09-06T06:14:59.082Z,72.09472656
2022-09-06T06:15:59.529Z,72.16186523
2022-09-06T06:17:00.703Z,72.16186523
2022-09-06T06:18:01.067Z,72.05810547
2022-09-06T06:19:01.495Z,71.96044922
2022-09-06T06:20:01.885Z,72.05810547
2022-09-06T06:21:02.381Z,72.05810547
2022-09-06T06:22:02.859Z,71.86279297
2022-09-06T06:23:03.276Z,71.36230469
2022-09-06T06:24:03.733Z,71.16088867
2022-09-06T06:25:04.137Z,71.16088867
2022-09-06T06:26:04.569Z,71.16088867
2022-09-06T06:27:05.654Z,70.75805664
2022-09-06T06:28:06.085Z,70.95947266
2022-09-06T06:29:06.510Z,71.05712891
2022-09-06T06:30:06.870Z,70.86181641
2022-09-06T06:31:07.351Z,70.82519531
2022-09-06T06:32:07.877Z,70.92285156
2022-09-06T06:33:08.208Z,71.32568359
2022-09-06T06:34:09.171Z,71.32568359
2022-09-06T06:35:09.546Z,71.22802734
2022-09-06T06:36:10.112Z,71.32568359
2022-09-06T06:37:41.874Z,71.42333984
2022-09-06T06:38:42.308Z,71.22802734
2022-09-06T06:39:42.922Z,71.22802734
2022-09-06T06:40:43.133Z,70.92285156
2022-09-06T06:41:43.580Z,70.72753906
2022-09-06T06:42:43.990Z,70.4284668
2022-09-06T06:43:44.403Z,70.4284668
2022-09-06T06:44:44.845Z,70.52612305
2022-09-06T06:45:45.300Z,70.4284668
2022-09-06T06:46:45.716Z,70.32470703
2022-09-06T06:47:46.885Z,70.22705078
2022-09-06T06:48:49.479Z,70.32470703
2022-09-06T06:49:47.751Z,70.6237793
2022-09-06T06:50:48.648Z,70.4284668
2022-09-06T06:51:49.129Z,70.32470703
2022-09-06T06:52:49.569Z,70.22705078
2022-09-06T06:53:49.981Z,70.22705078
2022-09-06T06:54:50.426Z,69.92797852
2022-09-06T06:55:50.781Z,70.02563477
2022-09-06T06:56:51.227Z,70.12329102
2022-09-06T06:57:52.351Z,70.22705078
2022-09-06T06:58:52.769Z,70.12329102
2022-09-06T06:59:53.185Z,70.09277344
2022-09-06T07:00:54.289Z,69.98901367
2022-09-06T07:01:54.775Z,69.89135742
2022-09-06T07:02:55.080Z,69.89135742
2022-09-06T07:03:55.498Z,69.79370117
2022-09-06T07:04:55.920Z,69.98901367
2022-09-06T07:06:12.549Z,69.89135742
2022-09-06T07:07:57.207Z,69.18945313
2022-09-06T07:08:58.158Z,69.18945313
2022-09-06T07:10:58.970Z,68.99414063
2022-09-06T07:11:59.459Z,69.29321289
2022-09-06T07:12:59.978Z,69.29321289
2022-09-06T07:14:00.412Z,68.85986328
2022-09-06T07:15:00.871Z,68.85986328
2022-09-06T07:16:01.270Z,68.95751953
2022-09-06T07:17:04.111Z,69.15893555
2022-09-06T07:18:02.115Z,68.65844727
2022-09-06T07:19:03.444Z,68.56079102
2022-09-06T07:20:16.592Z,68.56079102
2022-09-06T07:22:05.910Z,68.82324219
2022-09-06T07:24:06.347Z,69.0246582
2022-09-06T07:25:06.128Z,69.0246582
2022-09-06T07:26:06.545Z,68.92700195
2022-09-06T07:28:08.346Z,68.52416992
2022-09-06T07:29:08.885Z,68.52416992
2022-09-06T07:30:09.346Z,67.52929688
2022-09-06T07:32:40.796Z,67.32788086
2022-09-06T07:33:41.204Z,67.23022461
2022-09-06T07:34:41.695Z,67.32788086
2022-09-06T07:35:42.122Z,67.42553711
2022-09-06T07:36:43.354Z,67.42553711
2022-09-06T07:37:44.796Z,67.72460938
2022-09-06T07:38:45.144Z,67.82836914
2022-09-06T07:39:45.595Z,67.59643555
2022-09-06T07:40:45.990Z,67.29736328
2022-09-06T07:41:46.392Z,67.19360352
2022-09-06T07:42:46.873Z,67.09594727
2022-09-06T07:43:47.856Z,67.29736328
2022-09-06T07:44:48.431Z,66.89453125
2022-09-06T07:45:48.742Z,66.69921875
2022-09-06T07:46:50.093Z,66.69921875
2022-09-06T07:47:58.621Z,66.796875
2022-09-06T07:48:51.596Z,66.59545898
2022-09-06T07:50:54.663Z,67.19360352
2022-09-06T07:51:52.891Z,67.49267578
2022-09-06T07:53:11.852Z,67.59643555
2022-09-06T07:54:06.880Z,67.99316406
2022-09-06T07:54:54.215Z,67.79785156
2022-09-06T07:55:54.670Z,67.76123047
2022-09-06T07:56:55.065Z,67.66357422
2022-09-06T07:57:56.390Z,67.76123047
2022-09-06T07:58:56.797Z,67.66357422
2022-09-06T07:59:57.299Z,67.36450195
2022-09-06T08:00:57.688Z,66.96166992
2022-09-06T08:01:58.133Z,66.86401367
2022-09-06T08:02:58.462Z,67.06542969
2022-09-06T08:03:59.671Z,67.43164063
2022-09-06T08:05:00.229Z,67.52929688
2022-09-06T08:09:02.362Z,67.52929688
2022-09-06T08:10:02.787Z,67.33398438
2022-09-06T08:11:03.232Z,67.23022461
2022-09-06T08:12:03.602Z,67.52929688
2022-09-06T08:13:04.028Z,67.73071289
2022-09-06T08:14:04.506Z,67.73071289
2022-09-06T08:15:04.972Z,67.03491211
2022-09-06T08:16:06.462Z,66.33300781
2022-09-06T08:17:06.767Z,66.43066406
2022-09-06T08:18:07.983Z,66.23535156
2022-09-06T08:19:08.407Z,66.1315918
2022-09-06T08:20:09.284Z,66.03393555
2022-09-06T08:21:40.884Z,66.33300781
2022-09-06T08:22:41.525Z,66.33300781
2022-09-06T08:23:42.927Z,66.53442383
2022-09-06T08:24:43.334Z,66.72973633
2022-09-06T08:25:44.361Z,67.13256836
2022-09-06T08:26:44.799Z,67.23022461
2022-09-06T08:27:45.179Z,67.29736328
2022-09-06T08:28:46.433Z,67.4987793
2022-09-06T08:29:46.843Z,67.59643555
2022-09-06T08:30:47.280Z,67.29736328
2022-09-06T08:31:47.810Z,67.29736328
2022-09-06T08:32:48.107Z,67.79785156
2022-09-06T08:33:48.514Z,67.4987793
2022-09-06T08:34:48.944Z,67.79785156
2022-09-06T08:35:49.328Z,67.40112305
2022-09-06T08:36:49.721Z,67.19970703
2022-09-06T08:37:50.698Z,67.06542969
2022-09-06T08:38:51.105Z,67.2668457
2022-09-06T08:39:51.637Z,67.56591797
2022-09-06T08:40:51.929Z,67.36450195
2022-09-06T08:41:52.341Z,67.33398438
2022-09-06T08:42:53.459Z,66.73583984
2022-09-06T08:45:55.814Z,66.04003906
2022-09-06T08:46:55.289Z,66.04003906
2022-09-06T08:47:56.223Z,65.90576172
2022-09-06T08:48:56.692Z,65.80810547
2022-09-06T08:49:57.111Z,65.20996094
2022-09-06T08:50:57.519Z,64.91088867
2022-09-06T08:51:57.930Z,64.91088867
2022-09-06T08:53:16.345Z,65.01464844
2022-09-06T08:53:58.799Z,65.11230469
2022-09-06T08:54:59.906Z,64.91088867
2022-09-06T08:56:00.379Z,64.11743164
2022-09-06T08:57:00.796Z,63.61694336
2022-09-06T08:58:02.194Z,63.28735352
2022-09-06T08:59:02.633Z,63.7878418
2022-09-06T09:00:03.039Z,64.18457031
2022-09-06T09:01:03.520Z,64.48364258
2022-09-06T09:02:03.922Z,63.48876953
2022-09-06T09:03:04.301Z,63.88549805
2022-09-06T09:04:04.720Z,63.69018555
2022-09-06T09:05:05.127Z,63.3605957
2022-09-06T09:06:05.525Z,63.65966797
2022-09-06T09:07:06.893Z,63.5559082
2022-09-06T09:08:08.247Z,62.86010742
2022-09-06T09:09:39.101Z,63.5559082
2022-09-06T09:10:39.480Z,63.3605957
2022-09-06T09:11:39.868Z,63.45825195
2022-09-06T09:12:40.338Z,63.06152344
2022-09-06T09:13:40.768Z,62.86010742
2022-09-06T09:14:41.237Z,62.76245117
2022-09-06T09:15:41.662Z,62.76245117
2022-09-06T09:16:42.956Z,62.86010742
2022-09-06T09:17:43.383Z,62.86010742
2022-09-06T09:18:44.401Z,62.76245117
2022-09-06T09:19:44.814Z,62.86010742
2022-09-06T09:20:45.232Z,62.79296875
2022-09-06T09:21:46.379Z,63.09204102
2022-09-06T09:22:46.857Z,62.59155273
2022-09-06T09:23:47.264Z,62.09716797
2022-09-06T09:24:47.663Z,62.68920898
2022-09-06T09:25:48.124Z,63.18969727
2022-09-06T09:26:48.531Z,62.890625
2022-09-06T09:27:49.020Z,62.49389648
2022-09-06T09:28:50.390Z,62.79296875
2022-09-06T09:30:51.230Z,63.7878418
2022-09-06T09:31:53.639Z,63.9831543
2022-09-06T09:32:52.061Z,63.9831543
2022-09-06T09:33:52.471Z,63.95263672
2022-09-06T09:34:52.920Z,63.09204102
2022-09-06T09:35:53.324Z,62.86010742
2022-09-06T09:37:57.600Z,62.95776367
2022-09-06T09:38:56.414Z,62.56103516
2022-09-06T09:39:56.900Z,63.06152344
2022-09-06T09:40:57.251Z,63.15917969
2022-09-06T09:41:57.712Z,63.3605957
2022-09-06T09:42:58.139Z,63.25683594
2022-09-06T09:44:03.677Z,62.56103516
2022-09-06T09:44:58.966Z,61.86523438
2022-09-06T09:46:00.176Z,62.06665039
2022-09-06T09:47:00.648Z,62.68920898
2022-09-06T09:48:01.088Z,63.09204102
2022-09-06T09:49:02.414Z,63.9831543
2022-09-06T09:50:02.849Z,64.58129883
2022-09-06T09:51:03.275Z,64.38598633
2022-09-06T09:52:03.692Z,64.58129883
2022-09-06T09:53:04.120Z,64.97802734
2022-09-06T09:54:04.547Z,65.38085938
2022-09-06T09:55:04.992Z,65.80810547
2022-09-06T09:56:05.883Z,66.20483398
2022-09-06T09:57:09.014Z,66.00952148
2022-09-06T09:58:06.834Z,66.73583984
2022-09-06T09:59:38.384Z,66.73583984
2022-09-06T10:00:38.836Z,66.93725586
2022-09-06T10:01:39.202Z,66.93725586
2022-09-06T10:02:39.596Z,67.03491211
2022-09-06T10:05:40.877Z,67.73071289
2022-09-06T10:07:09.133Z,68.13354492
2022-09-06T10:07:42.916Z,68.43261719
2022-09-06T10:08:44.223Z,68.73168945
2022-09-06T10:09:44.636Z,69.0246582
2022-09-06T10:10:45.036Z,69.32373047
2022-09-06T10:11:45.425Z,69.86083984
2022-09-06T10:12:45.847Z,70.25756836
2022-09-06T10:13:46.352Z,70.12329102
2022-09-06T10:14:46.748Z,70.22094727
2022-09-06T10:15:48.007Z,70.65429688
2022-09-06T10:16:48.334Z,71.05102539
2022-09-06T10:17:49.692Z,71.25244141
2022-09-06T10:18:51.232Z,71.35009766
2022-09-06T10:19:51.667Z,70.85571289
2022-09-06T10:20:52.109Z,71.64916992
2022-09-06T10:21:53.429Z,74.14550781
2022-09-06T10:22:53.875Z,74.84130859
2022-09-06T10:24:54.739Z,73.64501953
2022-09-06T10:25:55.289Z,72.78442383
2022-09-06T10:26:55.718Z,72.68066406
2022-09-06T10:28:57.403Z,70.98999023
2022-09-06T10:29:57.787Z,71.88720703
2022-09-06T10:30:58.293Z,71.08764648
2022-09-06T10:31:58.630Z,72.08251953
2022-09-06T10:32:59.698Z,72.88208008
2022-09-06T10:34:00.244Z,72.1862793
2022-09-06T10:35:00.708Z,71.82006836
2022-09-06T10:36:01.164Z,71.42333984
2022-09-06T10:37:02.186Z,71.82006836
2022-09-06T10:38:02.586Z,70.92285156
2022-09-06T10:39:04.336Z,71.22192383
2022-09-06T10:40:04.452Z,72.05200195
2022-09-06T10:41:04.801Z,71.85668945
2022-09-06T10:42:05.185Z,72.35107422
2022-09-06T10:43:05.582Z,70.95336914
2022-09-06T10:44:06.056Z,70.78857422
2022-09-06T10:45:06.487Z,71.58813477
2022-09-06T10:46:06.943Z,71.92382813
2022-09-06T10:47:37.754Z,71.82617188
2022-09-06T10:48:39.218Z,72.42431641
2022-09-06T10:49:39.657Z,73.3215332
2022-09-06T10:50:40.098Z,73.95629883
2022-09-06T10:51:40.540Z,74.55444336
2022-09-06T10:52:40.938Z,74.21875
2022-09-06T10:53:41.684Z,75.01831055
2022-09-06T10:54:42.965Z,75.21972656
2022-09-06T10:55:46.263Z,75.12207031
2022-09-06T10:56:43.945Z,76.61743164
2022-09-06T10:59:47.552Z,76.81884766
2022-09-06T11:00:46.699Z,77.71606445
2022-09-06T11:01:47.162Z,78.41796875
2022-09-06T11:02:48.297Z,78.35693359
2022-09-06T11:05:48.670Z,79.45556641
2022-09-06T11:06:49.065Z,79.25415039
2022-09-06T11:08:53.525Z,78.05175781
2022-09-06T11:09:52.208Z,77.75268555
2022-09-06T11:10:52.661Z,77.95410156
2022-09-06T11:11:53.046Z,76.7578125
2022-09-06T11:12:53.444Z,76.65405273
2022-09-06T11:13:53.917Z,77.28881836
2022-09-06T11:14:54.932Z,77.49023438
2022-09-06T11:15:55.437Z,77.25219727
2022-09-06T11:16:55.800Z,76.89208984
2022-09-06T11:17:56.240Z,75.65307617
2022-09-06T11:18:57.262Z,75.68969727
2022-09-06T11:19:57.734Z,75.29296875
2022-09-06T11:20:58.140Z,76.19018555
2022-09-06T11:21:58.606Z,76.29394531
2022-09-06T11:22:59.050Z,74.59106445
2022-09-06T11:23:59.514Z,75.390625
2022-09-06T11:25:00.073Z,75.98876953
2022-09-06T11:26:01.419Z,75.18920898